createdAt,value
2019-01-29T00:00:30.306Z,3.59
2019-01-29T00:02:57.345Z,3.56
2019-01-29T00:05:23.439Z,3.55
2019-01-29T00:07:49.579Z,3.54
2019-01-29T00:10:15.515Z,3.54
2019-01-29T00:12:41.573Z,3.50
2019-01-29T00:15:09.299Z,3.48
2019-01-29T00:17:35.342Z,3.47
2019-01-29T00:20:01.577Z,3.46
2019-01-29T00:22:33.224Z,3.45
2019-01-29T00:24:55.653Z,3.48
2019-01-29T00:27:22.031Z,3.48
2019-01-29T00:29:49.653Z,3.46
2019-01-29T00:32:16.101Z,3.44
2019-01-29T00:34:43.628Z,3.44
2019-01-29T00:37:09.563Z,3.41
2019-01-29T00:39:35.492Z,3.38
2019-01-29T00:42:01.878Z,3.37
2019-01-29T00:44:27.824Z,3.38
2019-01-29T00:46:53.749Z,3.38
2019-01-29T00:49:19.720Z,3.36
2019-01-29T00:51:46.362Z,3.36
2019-01-29T00:54:12.295Z,3.33
2019-01-29T00:56:38.289Z,3.30
2019-01-29T00:59:04.232Z,3.32
2019-01-29T01:01:30.160Z,3.32
2019-01-29T01:03:56.115Z,3.33
2019-01-29T01:06:22.358Z,3.32
2019-01-29T01:08:48.415Z,3.31
2019-01-29T01:11:14.578Z,3.29
2019-01-29T01:13:41.226Z,3.28
2019-01-29T01:16:07.250Z,3.28
2019-01-29T01:18:33.270Z,3.26
2019-01-29T01:20:59.625Z,3.22
2019-01-29T01:23:26.249Z,3.21
2019-01-29T01:25:52.411Z,3.20
2019-01-29T01:28:18.347Z,3.20
2019-01-29T01:30:45.228Z,3.17
2019-01-29T01:33:11.197Z,3.16
2019-01-29T01:35:37.276Z,3.15
2019-01-29T01:38:03.222Z,3.16
2019-01-29T01:40:29.224Z,3.20
2019-01-29T01:42:55.274Z,3.20
2019-01-29T01:45:21.505Z,3.23
2019-01-29T01:47:49.773Z,3.28
2019-01-29T01:50:16.014Z,3.30
2019-01-29T01:52:43.257Z,3.31
2019-01-29T01:55:13.025Z,3.36
2019-01-29T01:57:39.967Z,3.39
2019-01-29T02:00:09.906Z,3.41
2019-01-29T02:02:36.198Z,3.45
2019-01-29T02:05:04.840Z,3.46
2019-01-29T02:07:31.796Z,3.49
2019-01-29T02:09:57.880Z,3.52
2019-01-29T02:12:25.558Z,3.54
2019-01-29T02:14:54.196Z,3.56
2019-01-29T02:17:20.166Z,3.48
2019-01-29T02:19:46.504Z,3.42
2019-01-29T02:22:12.542Z,3.38
2019-01-29T02:24:38.730Z,3.31
2019-01-29T02:27:04.780Z,3.28
2019-01-29T02:29:31.007Z,3.24
2019-01-29T02:31:57.916Z,3.23
2019-01-29T02:34:23.855Z,3.20
2019-01-29T02:36:50.493Z,3.18
2019-01-29T02:39:17.668Z,3.16
2019-01-29T02:41:43.795Z,3.11
2019-01-29T02:44:11.635Z,3.08
2019-01-29T02:46:37.632Z,3.05
2019-01-29T02:49:03.564Z,3.04
2019-01-29T02:51:29.494Z,3.02
2019-01-29T02:53:55.466Z,2.99
2019-01-29T02:56:23.505Z,2.96
2019-01-29T02:58:49.436Z,2.95
2019-01-29T03:01:16.429Z,2.95
2019-01-29T03:03:42.364Z,2.96
2019-01-29T03:06:09.207Z,2.97
2019-01-29T03:08:35.361Z,2.96
2019-01-29T03:11:01.452Z,2.98
2019-01-29T03:13:27.464Z,3.00
2019-01-29T03:15:53.437Z,3.00
2019-01-29T03:18:19.422Z,3.05
2019-01-29T03:20:45.409Z,3.09
2019-01-29T03:23:11.375Z,3.11
2019-01-29T03:25:38.403Z,3.12
2019-01-29T03:28:04.334Z,3.11
2019-01-29T03:30:30.931Z,3.13
2019-01-29T03:32:57.052Z,3.14
2019-01-29T03:35:22.985Z,3.15
2019-01-29T03:37:48.958Z,3.17
2019-01-29T03:40:20.708Z,3.21
2019-01-29T03:42:46.656Z,3.21
2019-01-29T03:45:14.517Z,3.27
2019-01-29T03:47:40.578Z,3.32
2019-01-29T03:50:11.290Z,3.36
2019-01-29T03:52:38.206Z,3.40
2019-01-29T03:55:06.042Z,3.42
2019-01-29T03:57:33.170Z,3.41
2019-01-29T03:59:59.227Z,3.40
2019-01-29T04:02:26.308Z,3.40
2019-01-29T04:04:52.242Z,3.41
2019-01-29T04:07:18.208Z,3.42
2019-01-29T04:09:44.438Z,3.41
2019-01-29T04:12:10.370Z,3.42
2019-01-29T04:14:36.377Z,3.38
2019-01-29T04:17:02.306Z,3.35
2019-01-29T04:19:30.115Z,3.35
2019-01-29T04:21:56.080Z,3.36
2019-01-29T04:24:22.809Z,3.38
2019-01-29T04:26:48.752Z,3.32
2019-01-29T04:29:14.813Z,3.28
2019-01-29T04:31:41.240Z,3.24
2019-01-29T04:34:07.257Z,3.24
2019-01-29T04:36:33.246Z,3.25
2019-01-29T04:38:59.509Z,3.22
2019-01-29T04:41:25.440Z,3.22
2019-01-29T04:43:51.539Z,3.21
2019-01-29T04:46:17.479Z,3.20
2019-01-29T04:48:43.415Z,3.17
2019-01-29T04:51:09.381Z,3.14
2019-01-29T04:53:35.332Z,3.11
2019-01-29T04:56:01.239Z,3.08
2019-01-29T04:58:27.239Z,3.07
2019-01-29T05:00:53.233Z,3.04
2019-01-29T05:03:19.198Z,3.04
2019-01-29T05:05:45.159Z,3.04
2019-01-29T05:08:11.107Z,3.05
2019-01-29T05:10:37.119Z,3.09
2019-01-29T05:13:03.587Z,3.12
2019-01-29T05:15:29.513Z,3.15
2019-01-29T05:17:55.452Z,3.16
2019-01-29T05:20:21.649Z,3.14
2019-01-29T05:22:48.157Z,3.11
2019-01-29T05:25:14.377Z,3.11
2019-01-29T05:27:40.483Z,3.11
2019-01-29T05:30:15.027Z,3.11
2019-01-29T05:32:40.972Z,3.10
2019-01-29T05:35:08.086Z,3.09
2019-01-29T05:37:34.020Z,3.05
2019-01-29T05:39:59.962Z,3.05
2019-01-29T05:42:25.968Z,3.05
2019-01-29T05:44:51.921Z,3.00
2019-01-29T05:47:17.858Z,3.05
2019-01-29T05:49:43.819Z,3.02
2019-01-29T05:52:09.745Z,3.01
2019-01-29T05:54:35.677Z,3.01
2019-01-29T05:57:01.656Z,3.02
2019-01-29T05:59:28.797Z,3.01
2019-01-29T06:01:54.712Z,2.99
2019-01-29T06:04:20.922Z,2.95
2019-01-29T06:06:46.936Z,2.92
2019-01-29T06:09:13.717Z,2.89
2019-01-29T06:11:41.275Z,2.86
2019-01-29T06:14:07.198Z,2.84
2019-01-29T06:16:33.123Z,2.81
2019-01-29T06:18:59.270Z,2.78
2019-01-29T06:21:25.337Z,2.76
2019-01-29T06:23:51.253Z,2.78
2019-01-29T06:26:17.248Z,2.79
2019-01-29T06:28:43.188Z,2.83
2019-01-29T06:31:09.120Z,2.85
2019-01-29T06:33:35.492Z,2.88
2019-01-29T06:36:01.486Z,2.88
2019-01-29T06:38:27.413Z,2.89
2019-01-29T06:40:54.253Z,2.90
2019-01-29T06:43:20.188Z,2.92
2019-01-29T06:45:46.140Z,2.94
2019-01-29T06:48:12.137Z,2.99
2019-01-29T06:50:38.950Z,3.12
2019-01-29T06:53:04.922Z,3.16
2019-01-29T06:55:30.990Z,3.14
2019-01-29T06:57:57.026Z,3.10
2019-01-29T07:00:28.466Z,3.08
2019-01-29T07:02:55.178Z,3.07
2019-01-29T07:05:21.103Z,3.07
2019-01-29T07:07:47.078Z,3.07
2019-01-29T07:10:19.663Z,3.06
2019-01-29T07:12:45.670Z,3.09
2019-01-29T07:15:41.903Z,3.15
2019-01-29T07:18:19.106Z,3.14
2019-01-29T07:20:45.318Z,3.04
2019-01-29T07:23:11.551Z,2.97
2019-01-29T07:25:37.549Z,2.90
2019-01-29T07:28:04.330Z,2.85
2019-01-29T07:30:30.264Z,2.79
2019-01-29T07:32:56.480Z,2.76
2019-01-29T07:35:22.468Z,2.78
2019-01-29T07:37:48.696Z,2.76
2019-01-29T07:40:14.750Z,2.71
2019-01-29T07:42:40.907Z,2.64
2019-01-29T07:45:12.124Z,2.58
2019-01-29T07:47:38.259Z,2.52
2019-01-29T07:50:07.555Z,2.50
2019-01-29T07:52:33.800Z,2.52
2019-01-29T07:55:00.234Z,2.53
2019-01-29T07:57:26.309Z,2.55
2019-01-29T07:59:52.242Z,2.54
2019-01-29T08:02:18.193Z,2.51
2019-01-29T08:04:44.348Z,2.50
2019-01-29T08:07:12.897Z,2.50
2019-01-29T08:09:38.828Z,2.49
2019-01-29T08:12:05.046Z,2.48
2019-01-29T08:14:31.575Z,2.49
2019-01-29T08:16:57.621Z,2.51
2019-01-29T08:19:24.902Z,2.58
2019-01-29T08:21:50.830Z,2.66
2019-01-29T08:24:16.774Z,2.72
2019-01-29T08:26:42.736Z,2.83
2019-01-29T08:29:08.870Z,2.96
2019-01-29T08:31:35.559Z,3.11
2019-01-29T08:34:01.684Z,3.20
2019-01-29T08:36:27.657Z,3.29
2019-01-29T08:38:53.685Z,3.36
2019-01-29T08:41:19.857Z,3.43
2019-01-29T08:43:46.095Z,3.52
2019-01-29T08:46:12.110Z,3.64
2019-01-29T08:48:38.128Z,3.69
2019-01-29T08:51:04.364Z,3.76
2019-01-29T08:53:30.306Z,3.90
2019-01-29T08:55:56.502Z,4.04
2019-01-29T08:58:27.075Z,4.15
2019-01-29T09:00:50.278Z,4.25
2019-01-29T09:03:16.585Z,4.30
2019-01-29T09:05:42.509Z,4.34
2019-01-29T09:08:08.642Z,4.46
2019-01-29T09:10:34.857Z,4.52
2019-01-29T09:13:00.812Z,4.59
2019-01-29T09:15:26.746Z,4.69
2019-01-29T09:17:52.807Z,4.83
2019-01-29T09:20:20.168Z,4.90
2019-01-29T09:22:46.403Z,4.92
2019-01-29T09:25:19.824Z,4.92
2019-01-29T09:27:41.720Z,4.96
2019-01-29T09:30:15.994Z,4.94
2019-01-29T09:32:42.237Z,4.93
2019-01-29T09:35:08.490Z,4.86
2019-01-29T09:37:35.006Z,4.84
2019-01-29T09:40:04.699Z,4.80
2019-01-29T09:42:30.672Z,4.69
2019-01-29T09:44:57.193Z,4.58
2019-01-29T09:47:23.971Z,4.47
2019-01-29T09:49:50.093Z,4.44
2019-01-29T09:52:16.370Z,4.44
2019-01-29T09:54:42.408Z,4.38
2019-01-29T09:57:08.351Z,4.41
2019-01-29T09:59:34.674Z,4.45
2019-01-29T10:02:00.857Z,4.46
2019-01-29T10:04:26.802Z,4.44
2019-01-29T10:06:52.912Z,4.40
2019-01-29T10:09:19.242Z,4.35
2019-01-29T10:11:45.366Z,4.29
2019-01-29T10:14:12.234Z,4.27
2019-01-29T10:16:38.172Z,4.27
2019-01-29T10:19:04.618Z,4.28
2019-01-29T10:21:30.823Z,4.32
2019-01-29T10:23:58.117Z,4.38
2019-01-29T10:26:24.044Z,4.38
2019-01-29T10:28:50.419Z,4.40
2019-01-29T10:31:16.554Z,4.45
2019-01-29T10:33:42.482Z,4.54
2019-01-29T10:36:08.897Z,4.55
2019-01-29T10:38:34.838Z,4.49
2019-01-29T10:41:00.903Z,4.52
2019-01-29T10:43:26.908Z,4.54
2019-01-29T10:45:52.956Z,4.54
2019-01-29T10:48:18.892Z,4.47
2019-01-29T10:50:46.281Z,4.43
2019-01-29T10:53:14.116Z,4.48
2019-01-29T10:55:47.111Z,4.42
2019-01-29T10:58:08.163Z,4.36
2019-01-29T11:00:37.751Z,4.24
2019-01-29T11:03:05.889Z,4.18
2019-01-29T11:05:32.463Z,4.19
2019-01-29T11:07:58.987Z,4.20
2019-01-29T11:10:25.025Z,4.34
2019-01-29T11:12:51.003Z,4.45
2019-01-29T11:15:23.060Z,4.47
2019-01-29T11:17:49.111Z,4.54
2019-01-29T11:20:17.387Z,4.46
2019-01-29T11:22:43.526Z,4.35
2019-01-29T11:25:13.162Z,4.27
2019-01-29T11:27:39.149Z,4.21
2019-01-29T11:30:08.891Z,4.13
2019-01-29T11:32:34.927Z,4.02
2019-01-29T11:35:02.010Z,3.94
2019-01-29T11:37:27.937Z,3.87
2019-01-29T11:39:53.990Z,3.79
2019-01-29T11:42:20.860Z,3.77
2019-01-29T11:44:48.585Z,3.73
2019-01-29T11:47:14.930Z,3.74
2019-01-29T11:49:41.653Z,3.75
2019-01-29T11:52:07.787Z,3.71
2019-01-29T11:54:34.029Z,3.63
2019-01-29T11:57:00.304Z,3.54
2019-01-29T11:59:26.265Z,3.51
2019-01-29T12:01:52.538Z,3.44
2019-01-29T12:04:18.655Z,3.36
2019-01-29T12:06:44.913Z,3.32
2019-01-29T12:09:11.406Z,3.26
2019-01-29T12:11:38.037Z,3.24
2019-01-29T12:14:04.122Z,3.21
2019-01-29T12:16:30.076Z,3.21
2019-01-29T12:18:56.146Z,3.23
2019-01-29T12:21:22.095Z,3.28
2019-01-29T12:23:48.353Z,3.28
2019-01-29T12:26:14.411Z,3.26
2019-01-29T12:28:40.317Z,3.26
2019-01-29T12:31:06.338Z,3.26
2019-01-29T12:33:32.650Z,3.18
2019-01-29T12:35:58.593Z,3.15
2019-01-29T12:38:24.540Z,3.09
2019-01-29T12:40:50.504Z,3.02
2019-01-29T12:43:20.283Z,2.98
2019-01-29T12:45:48.298Z,2.99
2019-01-29T12:48:14.414Z,2.97
2019-01-29T12:50:42.251Z,2.96
2019-01-29T12:53:10.202Z,2.88
2019-01-29T12:55:36.406Z,2.88
2019-01-29T12:58:02.670Z,2.91
2019-01-29T13:00:30.512Z,2.92
2019-01-29T13:02:56.536Z,2.97
2019-01-29T13:05:22.468Z,3.04
2019-01-29T13:07:48.413Z,3.10
2019-01-29T13:10:22.261Z,3.11
2019-01-29T13:12:48.878Z,3.10
2019-01-29T13:15:29.055Z,3.05
2019-01-29T13:17:57.111Z,3.04
2019-01-29T13:20:23.244Z,3.11
2019-01-29T13:22:49.528Z,3.12
2019-01-29T13:25:16.160Z,3.11
2019-01-29T13:27:42.125Z,3.14
2019-01-29T13:30:20.942Z,3.17
2019-01-29T13:32:47.876Z,3.15
2019-01-29T13:35:14.253Z,3.14
2019-01-29T13:37:43.168Z,3.11
2019-01-29T13:40:11.859Z,3.03
2019-01-29T13:42:38.375Z,3.00
2019-01-29T13:45:10.494Z,2.90
2019-01-29T13:47:36.443Z,2.84
2019-01-29T13:50:05.905Z,2.79
2019-01-29T13:52:35.060Z,2.74
2019-01-29T13:55:01.140Z,2.69
2019-01-29T13:57:27.945Z,2.69
2019-01-29T13:59:53.940Z,2.69
2019-01-29T14:02:20.079Z,2.70
2019-01-29T14:04:46.335Z,2.68
2019-01-29T14:07:12.333Z,2.68
2019-01-29T14:09:38.276Z,2.67
2019-01-29T14:12:04.333Z,2.65
2019-01-29T14:14:31.817Z,2.64
2019-01-29T14:16:58.072Z,2.61
2019-01-29T14:19:23.997Z,2.56
2019-01-29T14:21:50.202Z,2.50
2019-01-29T14:24:16.440Z,2.44
2019-01-29T14:26:47.564Z,2.46
2019-01-29T14:29:13.896Z,2.45
2019-01-29T14:31:40.126Z,2.44
2019-01-29T14:34:06.062Z,2.44
2019-01-29T14:36:32.054Z,2.44
2019-01-29T14:39:14.233Z,2.42
2019-01-29T14:41:40.234Z,2.39
2019-01-29T14:44:07.493Z,2.39
2019-01-29T14:46:34.468Z,2.40
2019-01-29T14:49:02.976Z,2.36
2019-01-29T14:51:29.938Z,2.32
2019-01-29T14:53:55.938Z,2.29
2019-01-29T14:56:23.367Z,2.25
2019-01-29T14:58:49.326Z,2.22
2019-01-29T15:01:15.811Z,2.19
2019-01-29T15:03:41.835Z,2.12
2019-01-29T15:06:07.979Z,2.12
2019-01-29T15:08:34.023Z,2.11
2019-01-29T15:10:59.990Z,2.06
2019-01-29T15:13:25.921Z,2.00
2019-01-29T15:15:53.754Z,1.96
2019-01-29T15:18:21.634Z,1.96
2019-01-29T15:20:47.571Z,1.91
2019-01-29T15:23:13.512Z,1.90
2019-01-29T15:25:39.523Z,1.89
2019-01-29T15:28:05.716Z,1.87
2019-01-29T15:30:32.308Z,1.86
2019-01-29T15:32:58.393Z,1.85
2019-01-29T15:35:24.427Z,1.84
2019-01-29T15:37:51.003Z,1.83
2019-01-29T15:40:21.499Z,1.85
2019-01-29T15:42:48.278Z,1.85
2019-01-29T15:45:18.909Z,1.83
2019-01-29T15:47:46.728Z,1.84
2019-01-29T15:50:21.111Z,1.86
2019-01-29T15:52:48.596Z,1.84
2019-01-29T15:55:17.059Z,1.82
2019-01-29T15:57:45.665Z,1.83
2019-01-29T16:00:15.349Z,1.80
2019-01-29T16:02:41.338Z,1.77
2019-01-29T16:05:11.085Z,1.77
2019-01-29T16:07:37.123Z,1.75
2019-01-29T16:10:07.030Z,1.75
2019-01-29T16:12:33.197Z,1.75
2019-01-29T16:14:59.145Z,1.77
2019-01-29T16:17:25.156Z,1.77
2019-01-29T16:19:51.102Z,1.75
2019-01-29T16:22:17.054Z,1.74
2019-01-29T16:24:43.068Z,1.74
2019-01-29T16:27:09.859Z,1.74
2019-01-29T16:29:38.649Z,1.72
2019-01-29T16:32:04.998Z,1.72
2019-01-29T16:34:32.891Z,1.74
2019-01-29T16:36:59.336Z,1.75
2019-01-29T16:39:25.424Z,1.79
2019-01-29T16:41:52.125Z,1.79
2019-01-29T16:44:18.059Z,1.78
2019-01-29T16:46:44.125Z,1.77
2019-01-29T16:49:10.597Z,1.74
2019-01-29T16:51:42.254Z,1.70
2019-01-29T16:54:04.883Z,1.67
2019-01-29T16:56:31.256Z,1.66
2019-01-29T16:58:57.337Z,1.67
2019-01-29T17:01:23.404Z,1.64
2019-01-29T17:03:49.349Z,1.61
2019-01-29T17:06:15.483Z,1.62
2019-01-29T17:08:41.525Z,1.65
2019-01-29T17:11:07.436Z,1.66
2019-01-29T17:13:33.377Z,1.67
2019-01-29T17:15:59.378Z,1.72
2019-01-29T17:18:25.325Z,1.76
2019-01-29T17:20:51.373Z,1.84
2019-01-29T17:23:17.509Z,1.92
2019-01-29T17:25:44.874Z,1.93
2019-01-29T17:28:11.012Z,1.85
2019-01-29T17:30:40.336Z,1.76
2019-01-29T17:33:07.013Z,1.70
2019-01-29T17:35:33.851Z,1.65
2019-01-29T17:38:01.788Z,1.63
2019-01-29T17:40:27.950Z,1.60
2019-01-29T17:42:54.302Z,1.58
2019-01-29T17:45:32.434Z,1.56
2019-01-29T17:47:58.850Z,1.55
2019-01-29T17:50:28.591Z,1.53
2019-01-29T17:52:54.641Z,1.55
2019-01-29T17:55:21.316Z,1.57
2019-01-29T17:57:50.705Z,1.56
2019-01-29T18:00:21.922Z,1.56
2019-01-29T18:02:47.980Z,1.58
2019-01-29T18:05:16.861Z,1.56
2019-01-29T18:07:42.836Z,1.57
2019-01-29T18:10:11.693Z,1.59
2019-01-29T18:12:37.909Z,1.60
2019-01-29T18:15:07.687Z,1.61
2019-01-29T18:17:33.716Z,1.62
2019-01-29T18:19:59.909Z,1.66
2019-01-29T18:22:25.987Z,1.66
2019-01-29T18:24:51.917Z,1.62
2019-01-29T18:27:20.140Z,1.62
2019-01-29T18:29:46.158Z,1.64
2019-01-29T18:32:12.113Z,1.65
2019-01-29T18:34:38.183Z,1.65
2019-01-29T18:37:04.311Z,1.65
2019-01-29T18:39:30.640Z,1.67
2019-01-29T18:41:56.747Z,1.68
2019-01-29T18:44:23.768Z,1.70
2019-01-29T18:46:49.996Z,1.75
2019-01-29T18:49:18.377Z,1.77
2019-01-29T18:51:45.963Z,1.81
2019-01-29T18:54:11.970Z,1.84
2019-01-29T18:56:40.831Z,1.87
2019-01-29T18:59:07.065Z,1.88
2019-01-29T19:01:33.432Z,1.87
2019-01-29T19:03:59.416Z,1.85
2019-01-29T19:06:25.708Z,1.85
2019-01-29T19:08:51.872Z,1.84
2019-01-29T19:11:18.526Z,1.83
2019-01-29T19:13:44.745Z,1.86
2019-01-29T19:16:10.686Z,1.88
2019-01-29T19:18:36.883Z,1.89
2019-01-29T19:21:02.937Z,1.91
2019-01-29T19:23:28.921Z,1.91
2019-01-29T19:25:54.855Z,1.89
2019-01-29T19:28:21.968Z,1.89
2019-01-29T19:30:48.255Z,1.89
2019-01-29T19:33:15.619Z,1.86
2019-01-29T19:35:43.765Z,1.86
2019-01-29T19:38:09.999Z,1.96
2019-01-29T19:40:36.127Z,1.95
2019-01-29T19:43:02.405Z,1.91
2019-01-29T19:45:31.152Z,1.84
2019-01-29T19:47:58.105Z,1.81
2019-01-29T19:50:26.920Z,1.75
2019-01-29T19:52:54.855Z,1.72
2019-01-29T19:55:21.597Z,1.69
2019-01-29T19:57:48.407Z,1.69
2019-01-29T20:00:18.385Z,1.69
2019-01-29T20:02:44.358Z,1.69
2019-01-29T20:05:10.367Z,1.71
2019-01-29T20:07:36.434Z,1.69
2019-01-29T20:10:06.665Z,1.67
2019-01-29T20:12:32.668Z,1.66
2019-01-29T20:14:58.616Z,1.67
2019-01-29T20:17:24.587Z,1.63
2019-01-29T20:19:50.548Z,1.61
2019-01-29T20:22:16.888Z,1.58
2019-01-29T20:24:42.862Z,1.54
2019-01-29T20:27:08.853Z,1.46
2019-01-29T20:29:36.065Z,1.36
2019-01-29T20:32:02.418Z,1.34
2019-01-29T20:34:28.451Z,1.35
2019-01-29T20:36:54.491Z,1.36
2019-01-29T20:39:22.897Z,1.38
2019-01-29T20:41:51.684Z,1.37
2019-01-29T20:44:17.269Z,1.36
2019-01-29T20:46:45.713Z,1.34
2019-01-29T20:49:11.850Z,1.32
2019-01-29T20:51:37.788Z,1.37
2019-01-29T20:54:04.109Z,1.37
2019-01-29T20:56:32.260Z,1.39
2019-01-29T20:58:59.270Z,1.38
2019-01-29T21:01:25.386Z,1.40
2019-01-29T21:03:54.698Z,1.41
2019-01-29T21:06:21.272Z,1.43
2019-01-29T21:08:47.433Z,1.42
2019-01-29T21:11:13.444Z,1.42
2019-01-29T21:13:40.008Z,1.41
2019-01-29T21:16:06.014Z,1.41
2019-01-29T21:18:32.345Z,1.40
2019-01-29T21:20:58.287Z,1.36
2019-01-29T21:23:24.590Z,1.32
2019-01-29T21:25:50.585Z,1.34
2019-01-29T21:28:16.663Z,1.37
2019-01-29T21:30:44.039Z,1.40
2019-01-29T21:33:11.015Z,1.43
2019-01-29T21:35:38.178Z,1.46
2019-01-29T21:38:04.155Z,1.50
2019-01-29T21:40:30.181Z,1.51
2019-01-29T21:42:57.511Z,1.49
2019-01-29T21:45:23.818Z,1.47
2019-01-29T21:47:51.509Z,1.45
2019-01-29T21:50:20.337Z,1.42
2019-01-29T21:52:46.295Z,1.34
2019-01-29T21:55:13.950Z,1.23
2019-01-29T21:57:39.979Z,1.19
2019-01-29T22:00:09.788Z,1.18
2019-01-29T22:02:35.910Z,1.23
2019-01-29T22:05:15.159Z,1.22
2019-01-29T22:07:45.728Z,1.11
2019-01-29T22:10:17.204Z,1.10
2019-01-29T22:12:47.766Z,1.08
2019-01-29T22:15:22.520Z,1.06
2019-01-29T22:17:53.928Z,1.03
2019-01-29T22:20:27.209Z,1.03
2019-01-29T22:22:57.864Z,1.00
2019-01-29T22:25:27.485Z,1.00
2019-01-29T22:27:57.115Z,1.06
2019-01-29T22:30:33.517Z,1.09
2019-01-29T22:33:03.976Z,1.10
2019-01-29T22:35:34.673Z,1.13
2019-01-29T22:38:06.377Z,1.18
2019-01-29T22:40:39.257Z,1.22
2019-01-29T22:43:29.452Z,1.28
2019-01-29T22:46:00.602Z,1.31
2019-01-29T22:48:31.792Z,1.30
2019-01-29T22:51:01.563Z,1.29
2019-01-29T22:53:31.184Z,1.32
2019-01-29T22:56:01.146Z,1.35
2019-01-29T22:58:31.126Z,1.39
2019-01-29T23:01:12.732Z,1.46
2019-01-29T23:03:44.508Z,1.47
2019-01-29T23:06:18.368Z,1.49
2019-01-29T23:08:48.466Z,1.51
2019-01-29T23:11:18.225Z,1.55
2019-01-29T23:13:47.848Z,1.58
2019-01-29T23:16:17.830Z,1.58
2019-01-29T23:18:47.509Z,1.58
2019-01-29T23:21:18.281Z,1.62
2019-01-29T23:23:48.573Z,1.65
2019-01-29T23:26:18.355Z,1.66
2019-01-29T23:28:49.604Z,1.64
2019-01-29T23:31:19.234Z,1.61
2019-01-29T23:33:49.981Z,1.58
2019-01-29T23:36:19.983Z,1.54
2019-01-29T23:38:50.016Z,1.47
2019-01-29T23:41:19.853Z,1.41
2019-01-29T23:43:49.601Z,1.35
2019-01-29T23:46:20.063Z,1.28
2019-01-29T23:48:49.717Z,1.19
2019-01-29T23:51:19.455Z,1.12
2019-01-29T23:53:49.433Z,1.05
2019-01-29T23:56:19.255Z,0.99
2019-01-29T23:58:50.149Z,0.92
